createdAt,value
2018-08-03T00:00:29.333Z,1017.28
2018-08-03T00:01:37.980Z,1017.29
2018-08-03T00:02:46.632Z,1017.27
2018-08-03T00:03:55.277Z,1017.27
2018-08-03T00:05:03.927Z,1017.26
2018-08-03T00:06:12.577Z,1017.28
2018-08-03T00:07:21.495Z,1017.26
2018-08-03T00:08:30.147Z,1017.2
2018-08-03T00:09:38.792Z,1017.26
2018-08-03T00:10:47.443Z,1017.23
2018-08-03T00:11:56.360Z,1017.18
2018-08-03T00:13:05.012Z,1017.16
2018-08-03T00:14:13.650Z,1017.2
2018-08-03T00:15:22.303Z,1017.2
2018-08-03T00:16:30.950Z,1017.26
2018-08-03T00:17:39.607Z,1017.23
2018-08-03T00:18:48.247Z,1017.26
2018-08-03T00:19:57.160Z,1017.24
2018-08-03T00:21:05.807Z,1017.24
2018-08-03T00:22:14.469Z,1017.26
2018-08-03T00:23:23.114Z,1017.23
2018-08-03T00:24:31.758Z,1017.25
2018-08-03T00:25:40.406Z,1017.21
2018-08-03T00:26:49.049Z,1017.21
2018-08-03T00:27:57.718Z,1017.25
2018-08-03T00:29:06.626Z,1017.22
2018-08-03T00:30:15.280Z,1017.2
2018-08-03T00:31:24.182Z,1017.2
2018-08-03T00:32:33.103Z,1017.16
2018-08-03T00:33:42.060Z,1017.16
2018-08-03T00:34:50.712Z,1017.14
2018-08-03T00:35:59.354Z,1017.13
2018-08-03T00:37:08.011Z,1017.18
2018-08-03T00:38:16.657Z,1017.14
2018-08-03T00:39:25.311Z,1017.17
2018-08-03T00:40:33.966Z,1017.17
2018-08-03T00:41:42.869Z,1017.17
2018-08-03T00:42:51.524Z,1017.16
2018-08-03T00:44:00.176Z,1017.17
2018-08-03T00:45:08.826Z,1017.19
2018-08-03T00:46:17.468Z,1017.16
2018-08-03T00:47:26.118Z,1017.19
2018-08-03T00:48:34.762Z,1017.12
2018-08-03T00:49:43.420Z,1017.13
2018-08-03T00:50:52.060Z,1017.13
2018-08-03T00:52:00.713Z,1017.13
2018-08-03T00:53:09.357Z,1017.13
2018-08-03T00:54:18.016Z,1017.16
2018-08-03T00:55:26.657Z,1017.13
2018-08-03T00:56:35.568Z,1017.14
2018-08-03T00:57:44.215Z,1017.13
2018-08-03T00:58:52.872Z,1017.17
2018-08-03T01:00:01.520Z,1017.16
2018-08-03T01:01:10.430Z,1017.11
2018-08-03T01:02:19.075Z,1017.16
2018-08-03T01:03:27.720Z,1017.14
2018-08-03T01:04:36.383Z,1017.14
2018-08-03T01:05:45.033Z,1017.14
2018-08-03T01:06:53.686Z,1017.15
2018-08-03T01:08:02.328Z,1017.17
2018-08-03T01:09:11.248Z,1017.16
2018-08-03T01:10:19.898Z,1017.13
2018-08-03T01:11:28.549Z,1017.17
2018-08-03T01:12:37.193Z,1017.14
2018-08-03T01:13:45.846Z,1017.14
2018-08-03T01:14:54.492Z,1017.13
2018-08-03T01:16:03.143Z,1017.14
2018-08-03T01:17:11.788Z,1017.13
2018-08-03T01:18:20.445Z,1017.1
2018-08-03T01:19:29.089Z,1017.11
2018-08-03T01:20:37.740Z,1017.1
2018-08-03T01:21:46.389Z,1017.11
2018-08-03T01:22:55.033Z,1017.11
2018-08-03T01:24:03.684Z,1017.07
2018-08-03T01:25:12.330Z,1017.09
2018-08-03T01:26:20.983Z,1017.13
2018-08-03T01:27:29.624Z,1017.12
2018-08-03T01:28:38.273Z,1017.1
2018-08-03T01:29:46.923Z,1017.09
2018-08-03T01:30:55.846Z,1017.05
2018-08-03T01:32:04.489Z,1017.07
2018-08-03T01:33:13.410Z,1017.04
2018-08-03T01:34:22.057Z,1017.05
2018-08-03T01:35:30.714Z,1017.01
2018-08-03T01:36:39.372Z,1016.97
2018-08-03T01:37:48.092Z,1016.99
2018-08-03T01:38:57.020Z,1016.97
2018-08-03T01:40:05.665Z,1017.02
2018-08-03T01:41:14.318Z,1017.02
2018-08-03T01:42:22.966Z,1016.99
2018-08-03T01:43:31.613Z,1016.99
2018-08-03T01:44:40.259Z,1017.01
2018-08-03T01:45:48.916Z,1017
2018-08-03T01:46:57.567Z,1017.01
2018-08-03T01:48:06.220Z,1017
2018-08-03T01:49:14.862Z,1017.01
2018-08-03T01:50:23.515Z,1016.99
2018-08-03T01:51:32.165Z,1016.95
2018-08-03T01:52:40.818Z,1016.97
2018-08-03T01:53:49.460Z,1016.95
2018-08-03T01:54:58.110Z,1016.94
2018-08-03T01:56:06.761Z,1016.91
2018-08-03T01:57:15.409Z,1016.93
2018-08-03T01:58:24.064Z,1016.9
2018-08-03T01:59:32.971Z,1016.94
2018-08-03T02:00:41.620Z,1016.91
2018-08-03T02:01:50.266Z,1016.91
2018-08-03T02:02:58.919Z,1016.92
2018-08-03T02:04:07.564Z,1016.9
2018-08-03T02:05:16.214Z,1016.88
2018-08-03T02:06:24.864Z,1016.88
2018-08-03T02:07:33.774Z,1016.91
2018-08-03T02:08:42.431Z,1016.92
2018-08-03T02:09:51.345Z,1016.9
2018-08-03T02:10:59.995Z,1016.91
2018-08-03T02:12:08.639Z,1016.92
2018-08-03T02:13:17.298Z,1016.88
2018-08-03T02:14:25.945Z,1016.91
2018-08-03T02:15:34.594Z,1016.91
2018-08-03T02:16:43.244Z,1016.92
2018-08-03T02:17:51.889Z,1016.9
2018-08-03T02:19:00.538Z,1016.9
2018-08-03T02:20:09.189Z,1016.89
2018-08-03T02:21:17.842Z,1016.93
2018-08-03T02:22:26.485Z,1016.9
2018-08-03T02:23:35.132Z,1016.95
2018-08-03T02:24:44.041Z,1016.94
2018-08-03T02:25:52.692Z,1016.93
2018-08-03T02:27:01.337Z,1016.98
2018-08-03T02:28:09.997Z,1016.98
2018-08-03T02:29:18.901Z,1016.95
2018-08-03T02:30:27.553Z,1016.95
2018-08-03T02:31:36.200Z,1016.98
2018-08-03T02:32:44.854Z,1016.97
2018-08-03T02:33:54.022Z,1016.97
2018-08-03T02:35:02.672Z,1017.04
2018-08-03T02:36:11.326Z,1017.01
2018-08-03T02:37:19.981Z,1016.99
2018-08-03T02:38:28.892Z,1017.04
2018-08-03T02:39:37.536Z,1017.05
2018-08-03T02:40:46.471Z,1017.04
2018-08-03T02:41:55.377Z,1017.04
2018-08-03T02:43:04.310Z,1017
2018-08-03T02:44:12.958Z,1017.05
2018-08-03T02:45:21.605Z,1017.02
2018-08-03T02:46:30.254Z,1017.01
2018-08-03T02:47:38.905Z,1017.05
2018-08-03T02:48:47.815Z,1017.06
2018-08-03T02:49:56.473Z,1017.07
2018-08-03T02:51:05.131Z,1017.06
2018-08-03T02:52:13.784Z,1017.08
2018-08-03T02:53:22.698Z,1017.07
2018-08-03T02:54:31.345Z,1017.05
2018-08-03T02:55:39.994Z,1017.1
2018-08-03T02:56:48.643Z,1017.09
2018-08-03T02:57:57.295Z,1017.06
2018-08-03T02:59:05.939Z,1017.09
2018-08-03T03:00:14.587Z,1017.07
2018-08-03T03:01:23.493Z,1017.04
2018-08-03T03:02:32.148Z,1017.07
2018-08-03T03:03:40.796Z,1017.05
2018-08-03T03:04:49.446Z,1017.07
2018-08-03T03:05:58.090Z,1017.05
2018-08-03T03:07:06.747Z,1017.07
2018-08-03T03:08:15.392Z,1017.09
2018-08-03T03:09:24.038Z,1017.06
2018-08-03T03:10:32.950Z,1017.12
2018-08-03T03:11:41.594Z,1017.13
2018-08-03T03:12:50.251Z,1017.09
2018-08-03T03:13:58.896Z,1017.11
2018-08-03T03:15:07.553Z,1017.1
2018-08-03T03:16:16.192Z,1017.13
2018-08-03T03:17:25.115Z,1017.09
2018-08-03T03:18:33.759Z,1017.09
2018-08-03T03:19:42.463Z,1017.09
2018-08-03T03:20:51.065Z,1017.08
2018-08-03T03:21:59.727Z,1017.1
2018-08-03T03:23:08.636Z,1017.13
2018-08-03T03:24:17.286Z,1017.12
2018-08-03T03:25:25.925Z,1017.18
2018-08-03T03:26:34.574Z,1017.12
2018-08-03T03:27:43.227Z,1017.12
2018-08-03T03:28:51.873Z,1017.13
2018-08-03T03:30:00.525Z,1017.13
2018-08-03T03:31:09.708Z,1017.19
2018-08-03T03:32:18.366Z,1017.19
2018-08-03T03:33:27.321Z,1017.2
2018-08-03T03:34:35.927Z,1017.16
2018-08-03T03:35:44.566Z,1017.18
2018-08-03T03:36:53.487Z,1017.16
2018-08-03T03:38:02.122Z,1017.15
2018-08-03T03:39:10.779Z,1017.16
2018-08-03T03:40:19.687Z,1017.17
2018-08-03T03:41:28.336Z,1017.22
2018-08-03T03:42:36.981Z,1017.21
2018-08-03T03:43:45.901Z,1017.22
2018-08-03T03:44:54.806Z,1017.19
2018-08-03T03:46:03.448Z,1017.18
2018-08-03T03:47:12.094Z,1017.18
2018-08-03T03:48:20.739Z,1017.18
2018-08-03T03:49:29.661Z,1017.18
2018-08-03T03:50:38.301Z,1017.16
2018-08-03T03:51:46.954Z,1017.17
2018-08-03T03:52:55.592Z,1017.17
2018-08-03T03:54:04.512Z,1017.16
2018-08-03T03:55:13.155Z,1017.18
2018-08-03T03:56:21.808Z,1017.19
2018-08-03T03:57:30.451Z,1017.15
2018-08-03T03:58:39.106Z,1017.18
2018-08-03T03:59:47.749Z,1017.16
2018-08-03T04:00:56.399Z,1017.17
2018-08-03T04:02:05.040Z,1017.16
2018-08-03T04:03:13.953Z,1017.15
2018-08-03T04:04:22.608Z,1017.13
2018-08-03T04:05:31.515Z,1017.19
2018-08-03T04:06:40.162Z,1017.19
2018-08-03T04:07:48.814Z,1017.16
2018-08-03T04:08:57.463Z,1017.14
2018-08-03T04:10:06.109Z,1017.13
2018-08-03T04:11:14.753Z,1017.14
2018-08-03T04:12:23.702Z,1017.14
2018-08-03T04:13:32.323Z,1017.16
2018-08-03T04:14:40.970Z,1017.15
2018-08-03T04:15:49.878Z,1017.17
2018-08-03T04:16:58.536Z,1017.13
2018-08-03T04:18:07.446Z,1017.14
2018-08-03T04:19:16.095Z,1017.15
2018-08-03T04:20:24.737Z,1017.08
2018-08-03T04:21:33.388Z,1017.08
2018-08-03T04:22:42.299Z,1017.07
2018-08-03T04:23:50.949Z,1017.1
2018-08-03T04:24:59.599Z,1017.11
2018-08-03T04:26:08.243Z,1017.09
2018-08-03T04:27:17.154Z,1017.08
2018-08-03T04:28:26.067Z,1017.09
2018-08-03T04:29:34.717Z,1017.12
2018-08-03T04:30:43.359Z,1017.06
2018-08-03T04:31:52.009Z,1017.1
2018-08-03T04:33:00.920Z,1017.1
2018-08-03T04:34:09.571Z,1017.1
2018-08-03T04:35:18.215Z,1017.09
2018-08-03T04:36:26.863Z,1017.08
2018-08-03T04:37:35.510Z,1017.09
2018-08-03T04:38:44.161Z,1017.09
2018-08-03T04:39:52.810Z,1017.15
2018-08-03T04:41:01.461Z,1017.13
2018-08-03T04:42:10.207Z,1017.15
2018-08-03T04:43:18.753Z,1017.16
2018-08-03T04:44:27.403Z,1017.14
2018-08-03T04:45:36.049Z,1017.16
2018-08-03T04:46:44.700Z,1017.19
2018-08-03T04:47:53.344Z,1017.12
2018-08-03T04:49:01.999Z,1017.17
2018-08-03T04:50:10.643Z,1017.12
2018-08-03T04:51:19.289Z,1017.13
2018-08-03T04:52:27.932Z,1017.14
2018-08-03T04:53:36.585Z,1017.14
2018-08-03T04:54:45.298Z,1017.12
2018-08-03T04:55:53.879Z,1017.15
2018-08-03T04:57:02.524Z,1017.15
2018-08-03T04:58:11.174Z,1017.13
2018-08-03T04:59:20.084Z,1017.16
2018-08-03T05:00:28.736Z,1017.17
2018-08-03T05:01:37.382Z,1017.11
2018-08-03T05:02:46.025Z,1017.15
2018-08-03T05:03:54.948Z,1017.13
2018-08-03T05:05:03.854Z,1017.14
2018-08-03T05:06:12.773Z,1017.17
2018-08-03T05:07:21.412Z,1017.16
2018-08-03T05:08:30.064Z,1017.17
2018-08-03T05:09:38.707Z,1017.22
2018-08-03T05:10:47.364Z,1017.22
2018-08-03T05:11:55.998Z,1017.21
2018-08-03T05:13:04.918Z,1017.25
2018-08-03T05:14:13.567Z,1017.25
2018-08-03T05:15:22.242Z,1017.28
2018-08-03T05:16:30.869Z,1017.28
2018-08-03T05:17:39.510Z,1017.27
2018-08-03T05:18:48.157Z,1017.27
2018-08-03T05:19:57.063Z,1017.29
2018-08-03T05:21:05.723Z,1017.25
2018-08-03T05:22:14.367Z,1017.27
2018-08-03T05:23:23.018Z,1017.27
2018-08-03T05:24:31.659Z,1017.22
2018-08-03T05:25:40.578Z,1017.25
2018-08-03T05:26:49.233Z,1017.24
2018-08-03T05:27:57.885Z,1017.23
2018-08-03T05:29:06.525Z,1017.19
2018-08-03T05:30:15.235Z,1017.2
2018-08-03T05:31:24.133Z,1017.24
2018-08-03T05:32:32.784Z,1017.22
2018-08-03T05:33:41.692Z,1017.25
2018-08-03T05:34:50.348Z,1017.25
2018-08-03T05:35:59.019Z,1017.29
2018-08-03T05:37:08.019Z,1017.27
2018-08-03T05:38:16.657Z,1017.21
2018-08-03T05:39:25.303Z,1017.21
2018-08-03T05:40:34.214Z,1017.22
2018-08-03T05:41:42.857Z,1017.19
2018-08-03T05:42:51.781Z,1017.21
2018-08-03T05:44:00.422Z,1017.19
2018-08-03T05:45:09.073Z,1017.21
2018-08-03T05:46:17.717Z,1017.21
2018-08-03T05:47:26.905Z,1017.22
2018-08-03T05:48:35.544Z,1017.19
2018-08-03T05:49:44.195Z,1017.23
2018-08-03T05:50:52.840Z,1017.25
2018-08-03T05:52:01.497Z,1017.25
2018-08-03T05:53:10.144Z,1017.28
2018-08-03T05:54:18.786Z,1017.28
2018-08-03T05:55:27.431Z,1017.28
2018-08-03T05:56:36.078Z,1017.32
2018-08-03T05:57:44.739Z,1017.31
2018-08-03T05:58:53.655Z,1017.31
2018-08-03T06:00:02.311Z,1017.3
2018-08-03T06:01:10.946Z,1017.29
2018-08-03T06:02:19.597Z,1017.28
2018-08-03T06:03:28.248Z,1017.32
2018-08-03T06:04:36.893Z,1017.32
2018-08-03T06:05:45.551Z,1017.31
2018-08-03T06:06:54.190Z,1017.36
2018-08-03T06:08:02.873Z,1017.33
2018-08-03T06:09:11.490Z,1017.32
2018-08-03T06:10:20.150Z,1017.32
2018-08-03T06:11:28.800Z,1017.35
2018-08-03T06:12:37.442Z,1017.35
2018-08-03T06:13:46.352Z,1017.35
2018-08-03T06:14:55.031Z,1017.37
2018-08-03T06:16:03.659Z,1017.4
2018-08-03T06:17:12.561Z,1017.41
2018-08-03T06:18:21.213Z,1017.34
2018-08-03T06:19:29.853Z,1017.38
2018-08-03T06:20:38.536Z,1017.4
2018-08-03T06:21:47.158Z,1017.41
2018-08-03T06:22:55.811Z,1017.45
2018-08-03T06:24:04.723Z,1017.43
2018-08-03T06:25:13.386Z,1017.44
2018-08-03T06:26:22.295Z,1017.43
2018-08-03T06:27:31.209Z,1017.41
2018-08-03T06:28:39.849Z,1017.41
2018-08-03T06:29:48.556Z,1017.4
2018-08-03T06:30:57.158Z,1017.37
2018-08-03T06:32:05.817Z,1017.38
2018-08-03T06:33:14.465Z,1017.37
2018-08-03T06:34:23.104Z,1017.41
2018-08-03T06:35:31.759Z,1017.37
2018-08-03T06:36:40.408Z,1017.36
2018-08-03T06:37:49.073Z,1017.35
2018-08-03T06:38:57.709Z,1017.38
2018-08-03T06:40:06.367Z,1017.37
2018-08-03T06:41:15.009Z,1017.37
2018-08-03T06:42:23.669Z,1017.41
2018-08-03T06:43:32.307Z,1017.38
2018-08-03T06:44:40.961Z,1017.37
2018-08-03T06:45:49.876Z,1017.4
2018-08-03T06:46:58.531Z,1017.37
2018-08-03T06:48:07.179Z,1017.38
2018-08-03T06:49:15.827Z,1017.37
2018-08-03T06:50:24.472Z,1017.4
2018-08-03T06:51:33.116Z,1017.35
2018-08-03T06:52:41.773Z,1017.39
2018-08-03T06:53:50.476Z,1017.39
2018-08-03T06:54:59.073Z,1017.39
2018-08-03T06:56:07.718Z,1017.39
2018-08-03T06:57:16.380Z,1017.43
2018-08-03T06:58:25.367Z,1017.42
2018-08-03T06:59:34.008Z,1017.41
2018-08-03T07:00:42.675Z,1017.42
2018-08-03T07:01:51.307Z,1017.43
2018-08-03T07:03:00.061Z,1017.43
2018-08-03T07:04:08.604Z,1017.44
2018-08-03T07:05:17.247Z,1017.42
2018-08-03T07:06:25.900Z,1017.43
2018-08-03T07:07:34.550Z,1017.45
2018-08-03T07:08:43.204Z,1017.47
2018-08-03T07:09:51.858Z,1017.44
2018-08-03T07:11:00.766Z,1017.46
2018-08-03T07:12:09.412Z,1017.43
2018-08-03T07:13:18.061Z,1017.41
2018-08-03T07:14:26.734Z,1017.39
2018-08-03T07:15:35.646Z,1017.37
2018-08-03T07:16:44.298Z,1017.38
2018-08-03T07:17:52.948Z,1017.39
2018-08-03T07:19:01.607Z,1017.37
2018-08-03T07:20:10.437Z,1017.39
2018-08-03T07:21:18.904Z,1017.41
2018-08-03T07:22:27.552Z,1017.41
2018-08-03T07:23:36.209Z,1017.42
2018-08-03T07:24:44.859Z,1017.41
2018-08-03T07:25:53.540Z,1017.43
2018-08-03T07:27:02.487Z,1017.41
2018-08-03T07:28:11.404Z,1017.42
2018-08-03T07:29:20.059Z,1017.43
2018-08-03T07:30:28.711Z,1017.41
2018-08-03T07:31:37.371Z,1017.41
2018-08-03T07:32:46.007Z,1017.42
2018-08-03T07:33:54.661Z,1017.45
2018-08-03T07:35:03.577Z,1017.47
2018-08-03T07:36:12.228Z,1017.43
2018-08-03T07:37:20.874Z,1017.41
2018-08-03T07:38:29.530Z,1017.44
2018-08-03T07:39:38.176Z,1017.44
2018-08-03T07:40:46.830Z,1017.42
2018-08-03T07:41:55.475Z,1017.38
2018-08-03T07:43:04.201Z,1017.36
2018-08-03T07:44:13.198Z,1017.39
2018-08-03T07:45:21.811Z,1017.37
2018-08-03T07:46:30.466Z,1017.38
2018-08-03T07:47:39.113Z,1017.38
2018-08-03T07:48:48.032Z,1017.38
2018-08-03T07:49:56.682Z,1017.34
2018-08-03T07:51:05.339Z,1017.32
2018-08-03T07:52:14.247Z,1017.32
2018-08-03T07:53:23.167Z,1017.31
2018-08-03T07:54:31.818Z,1017.29
2018-08-03T07:55:40.475Z,1017.32
2018-08-03T07:56:49.122Z,1017.33
2018-08-03T07:57:57.776Z,1017.36
2018-08-03T07:59:06.421Z,1017.32
2018-08-03T08:00:15.083Z,1017.36
2018-08-03T08:01:23.736Z,1017.31
2018-08-03T08:02:32.384Z,1017.31
2018-08-03T08:03:41.040Z,1017.3
2018-08-03T08:04:49.692Z,1017.31
2018-08-03T08:05:58.612Z,1017.27
2018-08-03T08:07:07.261Z,1017.29
2018-08-03T08:08:15.917Z,1017.27
2018-08-03T08:09:24.562Z,1017.3
2018-08-03T08:10:33.223Z,1017.32
2018-08-03T08:11:41.874Z,1017.27
2018-08-03T08:12:50.533Z,1017.31
2018-08-03T08:13:59.176Z,1017.26
2018-08-03T08:15:07.901Z,1017.27
2018-08-03T08:16:16.848Z,1017.31
2018-08-03T08:17:25.503Z,1017.31
2018-08-03T08:18:34.147Z,1017.29
2018-08-03T08:19:43.062Z,1017.27
2018-08-03T08:20:51.720Z,1017.24
2018-08-03T08:22:00.375Z,1017.26
2018-08-03T08:23:09.030Z,1017.28
2018-08-03T08:24:17.672Z,1017.24
2018-08-03T08:25:26.600Z,1017.22
2018-08-03T08:26:35.249Z,1017.21
2018-08-03T08:27:44.184Z,1017.22
2018-08-03T08:28:52.828Z,1017.25
2018-08-03T08:30:01.489Z,1017.24
2018-08-03T08:31:10.137Z,1017.25
2018-08-03T08:32:18.802Z,1017.26
2018-08-03T08:33:27.704Z,1017.24
2018-08-03T08:34:36.359Z,1017.25
2018-08-03T08:35:45.277Z,1017.24
2018-08-03T08:36:53.947Z,1017.2
2018-08-03T08:38:02.888Z,1017.2
2018-08-03T08:39:11.531Z,1017.19
2018-08-03T08:40:20.180Z,1017.15
2018-08-03T08:41:28.831Z,1017.19
2018-08-03T08:42:37.494Z,1017.19
2018-08-03T08:43:46.302Z,1017.16
2018-08-03T08:44:54.800Z,1017.18
2018-08-03T08:46:03.446Z,1017.15
2018-08-03T08:47:12.106Z,1017.14
2018-08-03T08:48:20.754Z,1017.17
2018-08-03T08:49:29.411Z,1017.11
2018-08-03T08:50:38.319Z,1017.1
2018-08-03T08:51:46.983Z,1017.07
2018-08-03T08:52:55.701Z,1017.07
2018-08-03T08:54:04.293Z,1017.08
2018-08-03T08:55:13.198Z,1017.08
2018-08-03T08:56:21.852Z,1017.06
2018-08-03T08:57:30.516Z,1017.05
2018-08-03T08:58:39.431Z,1017.06
2018-08-03T08:59:48.089Z,1017.01
2018-08-03T09:00:56.821Z,1017.05
2018-08-03T09:02:05.689Z,1017.03
2018-08-03T09:03:14.341Z,1017.02
2018-08-03T09:04:23.000Z,1017
2018-08-03T09:05:31.650Z,1017.01
2018-08-03T09:06:40.366Z,1017.07
2018-08-03T09:07:49.689Z,1017.06
2018-08-03T09:08:58.239Z,1017.03
2018-08-03T09:10:07.152Z,1017.05
2018-08-03T09:11:15.812Z,1017.04
2018-08-03T09:12:24.462Z,1017.03
2018-08-03T09:13:33.122Z,1017.04
2018-08-03T09:14:42.042Z,1017
2018-08-03T09:15:50.690Z,1017
2018-08-03T09:16:59.601Z,1016.96
2018-08-03T09:18:08.251Z,1016.95
2018-08-03T09:19:16.910Z,1016.93
2018-08-03T09:20:25.575Z,1016.94
2018-08-03T09:21:34.226Z,1016.94
2018-08-03T09:22:42.873Z,1016.94
2018-08-03T09:23:51.531Z,1016.9
2018-08-03T09:25:00.186Z,1016.92
2018-08-03T09:26:08.835Z,1016.89
2018-08-03T09:27:17.495Z,1016.92
2018-08-03T09:28:26.214Z,1016.88
2018-08-03T09:29:34.797Z,1016.86
2018-08-03T09:30:43.457Z,1016.85
2018-08-03T09:31:52.107Z,1016.83
2018-08-03T09:33:00.770Z,1016.83
2018-08-03T09:34:09.421Z,1016.83
2018-08-03T09:35:18.338Z,1016.78
2018-08-03T09:36:27.523Z,1016.78
2018-08-03T09:37:36.166Z,1016.77
2018-08-03T09:38:44.821Z,1016.76
2018-08-03T09:39:53.474Z,1016.76
2018-08-03T09:41:02.134Z,1016.78
2018-08-03T09:42:10.783Z,1016.78
2018-08-03T09:43:19.438Z,1016.79
2018-08-03T09:44:28.377Z,1016.77
2018-08-03T09:45:37.037Z,1016.73
2018-08-03T09:46:45.684Z,1016.7
2018-08-03T09:47:54.341Z,1016.72
2018-08-03T09:49:03.036Z,1016.68
2018-08-03T09:50:11.662Z,1016.66
2018-08-03T09:51:20.305Z,1016.63
2018-08-03T09:52:28.960Z,1016.6
2018-08-03T09:53:37.882Z,1016.61
2018-08-03T09:54:46.799Z,1016.58
2018-08-03T09:55:55.458Z,1016.58
2018-08-03T09:57:04.110Z,1016.56
2018-08-03T09:58:12.764Z,1016.57
2018-08-03T09:59:21.425Z,1016.6
2018-08-03T10:00:30.078Z,1016.57
2018-08-03T10:01:38.747Z,1016.59
2018-08-03T10:02:48.026Z,1016.56
2018-08-03T10:03:56.692Z,1016.57
2018-08-03T10:05:05.336Z,1016.58
2018-08-03T10:06:13.994Z,1016.6
2018-08-03T10:07:22.718Z,1016.55
2018-08-03T10:08:31.306Z,1016.55
2018-08-03T10:09:39.957Z,1016.52
2018-08-03T10:10:48.612Z,1016.51
2018-08-03T10:11:57.533Z,1016.49
2018-08-03T10:13:06.445Z,1016.47
2018-08-03T10:14:15.105Z,1016.46
2018-08-03T10:15:24.051Z,1016.47
2018-08-03T10:16:32.683Z,1016.46
2018-08-03T10:17:41.334Z,1016.43
2018-08-03T10:18:49.992Z,1016.47
2018-08-03T10:19:58.909Z,1016.47
2018-08-03T10:21:07.563Z,1016.45
2018-08-03T10:22:16.271Z,1016.44
2018-08-03T10:23:24.875Z,1016.41
2018-08-03T10:24:33.527Z,1016.38
2018-08-03T10:25:42.183Z,1016.39
2018-08-03T10:26:50.828Z,1016.4
2018-08-03T10:27:59.487Z,1016.36
2018-08-03T10:29:08.144Z,1016.37
2018-08-03T10:30:16.803Z,1016.38
2018-08-03T10:31:25.459Z,1016.35
2018-08-03T10:32:34.113Z,1016.35
2018-08-03T10:33:43.033Z,1016.36
2018-08-03T10:34:51.693Z,1016.33
2018-08-03T10:36:00.627Z,1016.32
2018-08-03T10:37:09.282Z,1016.34
2018-08-03T10:38:18.202Z,1016.29
2018-08-03T10:39:26.867Z,1016.3
2018-08-03T10:40:36.053Z,1016.23
2018-08-03T10:41:44.706Z,1016.24
2018-08-03T10:42:53.383Z,1016.23
2018-08-03T10:44:02.449Z,1016.23
2018-08-03T10:45:11.113Z,1016.25
2018-08-03T10:46:20.302Z,1016.24
2018-08-03T10:47:28.959Z,1016.21
2018-08-03T10:48:37.672Z,1016.17
2018-08-03T10:49:46.267Z,1016.11
2018-08-03T10:50:55.204Z,1016.16
2018-08-03T10:52:03.859Z,1016.14
2018-08-03T10:53:12.515Z,1016.17
2018-08-03T10:54:21.166Z,1016.18
2018-08-03T10:55:29.828Z,1016.14
2018-08-03T10:56:38.482Z,1016.16
2018-08-03T10:57:47.144Z,1016.18
2018-08-03T10:58:55.789Z,1016.17
2018-08-03T11:00:04.454Z,1016.18
2018-08-03T11:01:13.131Z,1016.15
2018-08-03T11:02:22.130Z,1016.15
2018-08-03T11:03:30.783Z,1016.15
2018-08-03T11:04:39.439Z,1016.13
2018-08-03T11:05:48.105Z,1016.18
2018-08-03T11:06:57.030Z,1016.15
2018-08-03T11:08:05.689Z,1016.15
2018-08-03T11:09:14.338Z,1016.16
2018-08-03T11:10:22.996Z,1016.1
2018-08-03T11:11:31.650Z,1016.08
2018-08-03T11:12:40.314Z,1016.08
2018-08-03T11:13:49.035Z,1016.09
2018-08-03T11:14:57.961Z,1016.05
2018-08-03T11:16:06.616Z,1016.08
2018-08-03T11:17:15.282Z,1016.05
2018-08-03T11:18:23.939Z,1016.05
2018-08-03T11:19:32.861Z,1016.02
2018-08-03T11:20:41.516Z,1016.04
2018-08-03T11:21:50.182Z,1016.01
2018-08-03T11:22:58.836Z,1015.97
2018-08-03T11:24:07.522Z,1015.96
2018-08-03T11:25:16.145Z,1015.95
2018-08-03T11:26:24.797Z,1015.96
2018-08-03T11:27:33.465Z,1015.92
2018-08-03T11:28:42.115Z,1015.95
2018-08-03T11:29:50.844Z,1015.93
2018-08-03T11:30:59.424Z,1015.95
2018-08-03T11:32:08.092Z,1015.91
2018-08-03T11:33:16.751Z,1015.94
2018-08-03T11:34:25.679Z,1015.9
2018-08-03T11:35:34.333Z,1015.93
2018-08-03T11:36:43.001Z,1015.91
2018-08-03T11:37:51.657Z,1015.84
2018-08-03T11:39:00.317Z,1015.88
2018-08-03T11:40:08.964Z,1015.88
2018-08-03T11:41:17.625Z,1015.84
2018-08-03T11:42:26.291Z,1015.79
2018-08-03T11:43:34.957Z,1015.8
2018-08-03T11:44:43.618Z,1015.79
2018-08-03T11:45:52.529Z,1015.76
2018-08-03T11:47:01.192Z,1015.75
2018-08-03T11:48:09.849Z,1015.75
2018-08-03T11:49:18.518Z,1015.72
2018-08-03T11:50:27.176Z,1015.72
2018-08-03T11:51:35.826Z,1015.69
2018-08-03T11:52:44.479Z,1015.71
2018-08-03T11:53:53.188Z,1015.72
2018-08-03T11:55:02.126Z,1015.72
2018-08-03T11:56:10.789Z,1015.7
2018-08-03T11:57:19.445Z,1015.68
2018-08-03T11:58:28.111Z,1015.68
2018-08-03T11:59:36.766Z,1015.68
2018-08-03T12:00:45.452Z,1015.69
2018-08-03T12:01:54.166Z,1015.67
2018-08-03T12:03:02.735Z,1015.64
2018-08-03T12:04:11.403Z,1015.65
2018-08-03T12:05:20.055Z,1015.62
2018-08-03T12:06:28.774Z,1015.61
2018-08-03T12:07:37.370Z,1015.58
2018-08-03T12:08:46.037Z,1015.58
2018-08-03T12:09:54.691Z,1015.6
2018-08-03T12:11:03.616Z,1015.61
2018-08-03T12:12:12.532Z,1015.59
2018-08-03T12:13:21.462Z,1015.58
2018-08-03T12:14:30.121Z,1015.57
2018-08-03T12:15:38.782Z,1015.56
2018-08-03T12:16:47.430Z,1015.5
2018-08-03T12:17:56.105Z,1015.51
2018-08-03T12:19:04.756Z,1015.5
2018-08-03T12:20:13.416Z,1015.46
2018-08-03T12:21:22.075Z,1015.48
2018-08-03T12:22:30.728Z,1015.43
2018-08-03T12:23:39.422Z,1015.46
2018-08-03T12:24:48.047Z,1015.43
2018-08-03T12:25:56.712Z,1015.42
2018-08-03T12:27:05.368Z,1015.45
2018-08-03T12:28:14.030Z,1015.45
2018-08-03T12:29:22.949Z,1015.43
2018-08-03T12:30:31.615Z,1015.43
2018-08-03T12:31:40.313Z,1015.46
2018-08-03T12:32:49.251Z,1015.47
2018-08-03T12:33:57.908Z,1015.47
2018-08-03T12:35:06.574Z,1015.46
2018-08-03T12:36:15.232Z,1015.44
2018-08-03T12:37:23.889Z,1015.41
2018-08-03T12:38:32.812Z,1015.41
2018-08-03T12:39:41.469Z,1015.39
2018-08-03T12:40:50.134Z,1015.42
2018-08-03T12:41:58.789Z,1015.43
2018-08-03T12:43:07.451Z,1015.39
2018-08-03T12:44:16.099Z,1015.38
2018-08-03T12:45:33.833Z,1015.35
2018-08-03T12:46:34.831Z,1015.34
2018-08-03T12:47:43.497Z,1015.3
2018-08-03T12:48:52.146Z,1015.3
2018-08-03T12:50:00.816Z,1015.25
2018-08-03T12:51:09.471Z,1015.25
2018-08-03T12:52:18.130Z,1015.25
2018-08-03T12:53:26.781Z,1015.26
2018-08-03T12:54:35.715Z,1015.24
2018-08-03T12:55:44.376Z,1015.25
2018-08-03T12:56:53.038Z,1015.21
2018-08-03T12:58:01.965Z,1015.22
2018-08-03T12:59:10.621Z,1015.23
2018-08-03T13:00:19.276Z,1015.22
2018-08-03T13:01:27.935Z,1015.17
2018-08-03T13:02:36.606Z,1015.16
2018-08-03T13:03:45.262Z,1015.16
2018-08-03T13:04:53.918Z,1015.13
2018-08-03T13:06:02.574Z,1015.14
2018-08-03T13:07:11.312Z,1015.13
2018-08-03T13:08:20.413Z,1015.13
2018-08-03T13:09:29.530Z,1015.12
2018-08-03T13:10:38.186Z,1015.09
2018-08-03T13:11:46.847Z,1015.09
2018-08-03T13:12:55.503Z,1015.07
2018-08-03T13:14:04.161Z,1015.07
2018-08-03T13:15:12.817Z,1015.04
2018-08-03T13:16:21.782Z,1015.07
2018-08-03T13:17:30.444Z,1015.03
2018-08-03T13:18:39.367Z,1015.04
2018-08-03T13:19:48.031Z,1015.01
2018-08-03T13:20:56.686Z,1014.99
2018-08-03T13:22:05.348Z,1015
2018-08-03T13:23:14.006Z,1014.93
2018-08-03T13:24:22.664Z,1014.98
2018-08-03T13:25:31.318Z,1014.9
2018-08-03T13:26:39.980Z,1014.91
2018-08-03T13:27:48.636Z,1014.91
2018-08-03T13:28:57.298Z,1014.9
2018-08-03T13:30:05.954Z,1014.89
2018-08-03T13:31:14.611Z,1014.84
2018-08-03T13:32:23.269Z,1014.81
2018-08-03T13:33:32.198Z,1014.84
2018-08-03T13:34:40.859Z,1014.83
2018-08-03T13:35:49.778Z,1014.8
2018-08-03T13:36:58.438Z,1014.75
2018-08-03T13:38:07.097Z,1014.75
2018-08-03T13:39:15.765Z,1014.71
2018-08-03T13:40:24.683Z,1014.76
2018-08-03T13:41:33.636Z,1014.77
2018-08-03T13:42:42.294Z,1014.76
2018-08-03T13:43:50.959Z,1014.73
2018-08-03T13:44:59.619Z,1014.72
2018-08-03T13:46:08.280Z,1014.76
2018-08-03T13:47:17.206Z,1014.71
2018-08-03T13:48:25.869Z,1014.75
2018-08-03T13:49:34.531Z,1014.74
2018-08-03T13:50:43.453Z,1014.69
2018-08-03T13:51:52.106Z,1014.69
2018-08-03T13:53:00.765Z,1014.67
2018-08-03T13:54:09.423Z,1014.68